Time,TemperatureF,DewpointF,PressureIn,WindDirection,WindDirectionDegrees,WindSpeedMPH,WindSpeedGustMPH,Humidity,HourlyPrecipIn,Conditions,Clouds,dailyrainin,SoftwareType,DateUTC
2013-04-14 00:00:00,23.0,14.4,29.96,ENE,73,0.0,0.0,69,0.00,,---,0.08,VWS V13.01,2013-04-14 05:00:00,
2013-04-14 00:05:00,23.4,14.4,29.96,ENE,73,0.0,0.0,68,0.00,,---,0.00,VWS V13.01,2013-04-14 05:05:00,
2013-04-14 00:10:00,23.4,14.0,29.96,ENE,73,0.0,0.0,67,0.00,,---,0.00,VWS V13.01,2013-04-14 05:10:00,
2013-04-14 00:16:00,23.4,13.7,29.96,North,357,0.0,0.0,66,0.00,,---,0.00,VWS V13.01,2013-04-14 05:16:00,
2013-04-14 00:22:00,23.5,13.9,29.96,North,357,0.0,0.0,66,0.00,,---,0.00,VWS V13.01,2013-04-14 05:22:00,
2013-04-14 00:28:00,23.5,13.5,29.96,North,357,0.0,0.0,65,0.00,,---,0.00,VWS V13.01,2013-04-14 05:28:00,
2013-04-14 00:33:00,23.7,13.7,29.96,North,357,0.0,0.0,65,0.00,,---,0.00,VWS V13.01,2013-04-14 05:33:00,
2013-04-14 00:38:00,24.1,13.7,29.96,North,357,0.0,0.0,64,0.00,,---,0.00,VWS V13.01,2013-04-14 05:38:00,
2013-04-14 00:43:00,24.3,13.5,29.99,North,357,0.0,0.0,63,0.00,,---,0.00,VWS V13.01,2013-04-14 05:43:00,
2013-04-14 00:49:00,24.1,13.0,29.99,North,357,0.0,0.0,62,0.00,,---,0.00,VWS V13.01,2013-04-14 05:49:00,
2013-04-14 00:55:00,24.1,13.0,29.99,North,357,0.0,0.0,62,0.00,,---,0.00,VWS V13.01,2013-04-14 05:55:00,
2013-04-14 01:00:00,23.7,12.6,29.99,North,357,0.0,0.0,62,0.00,,---,0.00,VWS V13.01,2013-04-14 06:00:00,
2013-04-14 01:06:00,23.4,12.3,29.99,North,357,0.0,0.0,62,0.00,,---,0.00,VWS V13.01,2013-04-14 06:06:00,
2013-04-14 01:12:00,23.0,12.3,29.99,North,357,0.0,0.0,63,0.00,,---,0.00,VWS V13.01,2013-04-14 06:12:00,
2013-04-14 01:17:00,22.8,12.8,29.99,North,357,0.0,0.0,65,0.00,,---,0.00,VWS V13.01,2013-04-14 06:17:00,
2013-04-14 01:23:00,22.8,13.2,29.99,North,357,0.0,0.0,66,0.00,,---,0.00,VWS V13.01,2013-04-14 06:23:00,
2013-04-14 01:28:00,22.6,13.0,29.99,North,357,0.0,0.0,66,0.00,,---,0.00,VWS V13.01,2013-04-14 06:28:00,
2013-04-14 01:33:00,22.5,12.8,29.99,North,357,0.0,0.0,66,0.00,,---,0.00,VWS V13.01,2013-04-14 06:33:00,
2013-04-14 01:39:00,22.5,13.5,29.99,North,357,0.0,0.0,68,0.00,,---,0.00,VWS V13.01,2013-04-14 06:39:00,
2013-04-14 01:44:00,22.3,13.7,29.99,North,357,0.0,0.0,69,0.00,,---,0.00,VWS V13.01,2013-04-14 06:44:00,
2013-04-14 01:49:00,22.3,13.7,29.99,North,357,0.0,0.0,69,0.00,,---,0.00,VWS V13.01,2013-04-14 06:49:00,
2013-04-14 01:55:00,22.1,13.8,29.99,North,357,0.0,0.0,70,0.00,,---,0.00,VWS V13.01,2013-04-14 06:55:00,
2013-04-14 02:00:00,22.1,13.8,29.99,North,357,0.0,0.0,70,0.00,,---,0.00,VWS V13.01,2013-04-14 07:00:00,
2013-04-14 02:05:00,22.3,14.3,29.99,North,357,0.0,0.0,71,0.00,,---,0.00,VWS V13.01,2013-04-14 07:05:00,
2013-04-14 02:10:00,22.1,13.8,29.99,North,357,0.0,0.0,70,0.00,,---,0.00,VWS V13.01,2013-04-14 07:10:00,
2013-04-14 02:16:00,21.9,13.6,29.99,North,357,0.0,0.0,70,0.00,,---,0.00,VWS V13.01,2013-04-14 07:16:00,
2013-04-14 02:22:00,21.9,14.0,29.99,North,357,0.0,0.0,71,0.00,,---,0.00,VWS V13.01,2013-04-14 07:22:00,
2013-04-14 02:28:00,21.9,14.3,29.99,North,357,0.0,0.0,72,0.00,,---,0.00,VWS V13.01,2013-04-14 07:28:00,
2013-04-14 02:33:00,21.9,14.3,29.99,North,357,0.0,0.0,72,0.00,,---,0.00,VWS V13.01,2013-04-14 07:33:00,
2013-04-14 02:38:00,21.7,14.1,29.99,North,357,0.0,0.0,72,0.00,,---,0.00,VWS V13.01,2013-04-14 07:38:00,
2013-04-14 02:43:00,21.7,14.4,29.99,North,357,0.0,0.0,73,0.00,,---,0.00,VWS V13.01,2013-04-14 07:43:00,
2013-04-14 02:48:00,21.7,14.4,29.99,North,357,0.0,0.0,73,0.00,,---,0.00,VWS V13.01,2013-04-14 07:48:00,
2013-04-14 02:54:00,21.4,14.1,29.99,North,357,0.0,0.0,73,0.00,,---,0.00,VWS V13.01,2013-04-14 07:54:00,
2013-04-14 03:00:00,21.0,13.4,29.99,North,357,0.0,0.0,72,0.00,,---,0.00,VWS V13.01,2013-04-14 08:00:00,
2013-04-14 03:05:00,20.8,13.2,29.99,North,357,0.0,0.0,72,0.00,,---,0.00,VWS V13.01,2013-04-14 08:05:00,
2013-04-14 03:11:00,20.7,13.4,29.99,North,357,0.0,0.0,73,0.00,,---,0.00,VWS V13.01,2013-04-14 08:11:00,
2013-04-14 03:16:00,20.5,13.5,29.99,North,357,0.0,0.0,74,0.00,,---,0.00,VWS V13.01,2013-04-14 08:16:00,
2013-04-14 03:21:00,20.3,13.4,29.99,North,357,0.0,0.0,74,0.00,,---,0.00,VWS V13.01,2013-04-14 08:21:00,
2013-04-14 03:26:00,19.9,12.7,29.99,North,357,0.0,0.0,73,0.00,,---,0.00,VWS V13.01,2013-04-14 08:26:00,
2013-04-14 03:32:00,19.6,12.0,29.96,North,357,0.0,0.0,72,0.00,,---,0.00,VWS V13.01,2013-04-14 08:32:00,
2013-04-14 03:37:00,19.4,12.2,29.96,North,357,0.0,0.0,73,0.00,,---,0.00,VWS V13.01,2013-04-14 08:37:00,
2013-04-14 03:43:00,19.6,12.6,29.96,North,357,0.0,0.0,74,0.00,,---,0.00,VWS V13.01,2013-04-14 08:43:00,
2013-04-14 03:49:00,19.6,13.0,29.96,North,357,0.0,0.0,75,0.00,,---,0.00,VWS V13.01,2013-04-14 08:49:00,
2013-04-14 03:54:00,19.6,13.0,29.96,North,357,0.0,0.0,75,0.00,,---,0.00,VWS V13.01,2013-04-14 08:54:00,
2013-04-14 03:59:00,19.6,13.0,29.96,North,357,0.0,0.0,75,0.00,,---,0.00,VWS V13.01,2013-04-14 08:59:00,
2013-04-14 04:04:00,19.6,13.0,29.96,North,357,0.0,0.0,75,0.00,,---,0.00,VWS V13.01,2013-04-14 09:04:00,
2013-04-14 04:09:00,19.6,13.0,29.96,North,357,0.0,0.0,75,0.00,,---,0.00,VWS V13.01,2013-04-14 09:09:00,
2013-04-14 04:14:00,19.6,13.0,29.96,North,357,0.0,0.0,75,0.00,,---,0.00,VWS V13.01,2013-04-14 09:14:00,
2013-04-14 04:20:00,19.9,13.6,29.96,North,357,0.0,0.0,76,0.00,,---,0.00,VWS V13.01,2013-04-14 09:20:00,
2013-04-14 04:25:00,19.9,13.6,29.96,North,357,0.0,0.0,76,0.00,,---,0.00,VWS V13.01,2013-04-14 09:25:00,
2013-04-14 04:32:00,19.9,13.3,29.96,North,357,0.0,0.0,75,0.00,,---,0.00,VWS V13.01,2013-04-14 09:32:00,
2013-04-14 04:38:00,19.9,13.3,29.96,North,357,0.0,0.0,75,0.00,,---,0.00,VWS V13.01,2013-04-14 09:38:00,
2013-04-14 04:43:00,19.9,13.3,29.96,North,357,0.0,0.0,75,0.00,,---,0.00,VWS V13.01,2013-04-14 09:43:00,
2013-04-14 04:48:00,19.9,13.0,29.96,North,357,0.0,0.0,74,0.00,,---,0.00,VWS V13.01,2013-04-14 09:48:00,
2013-04-14 04:53:00,20.3,14.0,29.96,North,357,0.0,0.0,76,0.00,,---,0.00,VWS V13.01,2013-04-14 09:53:00,
2013-04-14 04:58:00,20.7,14.6,29.96,North,357,0.0,0.0,77,0.00,,---,0.00,VWS V13.01,2013-04-14 09:58:00,
2013-04-14 05:03:00,20.7,14.3,29.96,North,357,0.0,0.0,76,0.00,,---,0.00,VWS V13.01,2013-04-14 10:03:00,
2013-04-14 05:08:00,20.7,13.7,29.96,North,357,0.0,0.0,74,0.00,,---,0.00,VWS V13.01,2013-04-14 10:08:00,
2013-04-14 05:13:00,20.8,14.2,29.96,North,357,0.0,0.0,75,0.00,,---,0.00,VWS V13.01,2013-04-14 10:13:00,
2013-04-14 05:19:00,20.7,13.4,29.96,North,357,0.0,0.0,73,0.00,,---,0.00,VWS V13.01,2013-04-14 10:19:00,
2013-04-14 05:24:00,20.3,12.7,29.96,North,357,3.1,3.1,72,0.00,,---,0.00,VWS V13.01,2013-04-14 10:24:00,
2013-04-14 05:29:00,20.3,12.7,29.96,North,357,3.1,3.6,72,0.00,,---,0.00,VWS V13.01,2013-04-14 10:29:00,
2013-04-14 05:34:00,20.1,12.6,29.96,North,357,3.1,3.1,72,0.00,,---,0.00,VWS V13.01,2013-04-14 10:34:00,
2013-04-14 05:40:00,20.7,14.0,29.96,North,357,0.0,0.0,75,0.00,,---,0.00,VWS V13.01,2013-04-14 10:40:00,
2013-04-14 05:45:00,20.8,14.5,29.96,North,357,0.0,0.0,76,0.00,,---,0.00,VWS V13.01,2013-04-14 10:45:00,
2013-04-14 05:50:00,21.0,14.7,29.96,North,357,0.0,0.0,76,0.00,,---,0.00,VWS V13.01,2013-04-14 10:50:00,
2013-04-14 05:55:00,21.2,14.5,29.96,North,357,0.0,0.0,75,0.00,,---,0.00,VWS V13.01,2013-04-14 10:55:00,
2013-04-14 06:00:00,21.6,14.9,29.99,North,357,0.0,0.0,75,0.00,,---,0.00,VWS V13.01,2013-04-14 11:00:00,
2013-04-14 06:05:00,21.6,14.9,29.99,North,357,0.0,0.0,75,0.00,,---,0.00,VWS V13.01,2013-04-14 11:05:00,
2013-04-14 06:10:00,21.4,14.4,29.99,North,357,0.0,0.0,74,0.00,,---,0.00,VWS V13.01,2013-04-14 11:10:00,
2013-04-14 06:15:00,21.0,13.7,29.99,North,357,0.0,0.0,73,0.00,,---,0.00,VWS V13.01,2013-04-14 11:15:00,
2013-04-14 06:20:00,20.7,13.1,29.99,North,357,0.0,0.0,72,0.00,,---,0.00,VWS V13.01,2013-04-14 11:20:00,
2013-04-14 06:25:00,20.5,13.2,29.99,North,357,0.0,0.0,73,0.00,,---,0.00,VWS V13.01,2013-04-14 11:25:00,
2013-04-14 06:30:00,20.3,13.0,29.99,North,357,0.0,0.0,73,0.00,,---,0.00,VWS V13.01,2013-04-14 11:30:00,
2013-04-14 06:36:00,20.3,13.4,29.99,North,357,0.0,0.0,74,0.00,,---,0.00,VWS V13.01,2013-04-14 11:36:00,
2013-04-14 06:41:00,20.3,13.4,29.99,North,357,0.0,0.0,74,0.00,,---,0.00,VWS V13.01,2013-04-14 11:41:00,
2013-04-14 06:47:00,20.3,13.4,29.99,North,357,0.0,0.0,74,0.00,,---,0.00,VWS V13.01,2013-04-14 11:47:00,
2013-04-14 06:52:00,20.1,13.2,29.99,North,357,0.0,0.0,74,0.00,,---,0.00,VWS V13.01,2013-04-14 11:52:00,
2013-04-14 06:58:00,19.6,12.6,29.99,North,357,0.0,0.0,74,0.00,,---,0.00,VWS V13.01,2013-04-14 11:58:00,
2013-04-14 07:03:00,19.8,13.1,29.99,North,357,0.0,0.0,75,0.00,,---,0.00,VWS V13.01,2013-04-14 12:03:00,
2013-04-14 07:08:00,19.8,13.4,29.99,North,357,0.0,0.0,76,0.00,,---,0.00,VWS V13.01,2013-04-14 12:08:00,
2013-04-14 07:14:00,20.5,14.4,29.99,North,357,0.0,0.0,77,0.00,,---,0.00,VWS V13.01,2013-04-14 12:14:00,
2013-04-14 07:19:00,21.6,16.1,29.99,North,357,0.0,0.0,79,0.00,,---,0.00,VWS V13.01,2013-04-14 12:19:00,
2013-04-14 07:24:00,22.1,16.6,29.99,North,357,0.0,0.0,79,0.00,,---,0.00,VWS V13.01,2013-04-14 12:24:00,
2013-04-14 07:29:00,23.0,17.5,29.99,North,357,0.0,0.0,79,0.00,,---,0.00,VWS V13.01,2013-04-14 12:29:00,
2013-04-14 07:35:00,23.5,17.4,29.99,North,357,0.0,0.0,77,0.00,,---,0.00,VWS V13.01,2013-04-14 12:35:00,
2013-04-14 07:40:00,24.3,17.8,29.99,North,357,0.0,0.0,76,0.00,,---,0.00,VWS V13.01,2013-04-14 12:40:00,
2013-04-14 07:46:00,25.2,18.0,29.99,North,357,0.0,0.0,74,0.00,,---,0.00,VWS V13.01,2013-04-14 12:46:00,
2013-04-14 07:52:00,25.7,17.9,29.99,North,357,0.0,0.0,72,0.00,,---,0.00,VWS V13.01,2013-04-14 12:52:00,
2013-04-14 07:57:00,25.9,18.1,29.99,North,357,0.0,0.0,72,0.00,,---,0.00,VWS V13.01,2013-04-14 12:57:00,
2013-04-14 08:03:00,26.4,18.3,29.99,North,357,0.0,0.0,71,0.00,,---,0.00,VWS V13.01,2013-04-14 13:03:00,
2013-04-14 08:09:00,27.1,19.0,29.99,ESE,122,0.0,3.6,71,0.00,,---,0.00,VWS V13.01,2013-04-14 13:09:00,
2013-04-14 08:14:00,28.0,19.9,29.99,SSE,159,3.6,4.5,71,0.00,,---,0.00,VWS V13.01,2013-04-14 13:14:00,
2013-04-14 08:20:00,29.5,21.2,29.99,South,180,3.6,4.5,71,0.00,,---,0.00,VWS V13.01,2013-04-14 13:20:00,
2013-04-14 08:25:00,30.2,21.9,29.99,South,179,4.0,4.0,71,0.00,,---,0.00,VWS V13.01,2013-04-14 13:25:00,
2013-04-14 08:30:00,30.7,22.1,29.99,South,186,3.6,4.0,70,0.00,,---,0.00,VWS V13.01,2013-04-14 13:30:00,
2013-04-14 08:35:00,31.1,22.5,29.99,SSE,152,3.6,3.6,70,0.00,,---,0.00,VWS V13.01,2013-04-14 13:35:00,
2013-04-14 08:40:00,31.3,22.3,29.99,South,177,0.0,3.1,69,0.00,,---,0.00,VWS V13.01,2013-04-14 13:40:00,
2013-04-14 08:45:00,31.6,22.3,29.99,SE,135,3.6,3.6,68,0.00,,---,0.00,VWS V13.01,2013-04-14 13:45:00,
2013-04-14 08:51:00,32.2,21.8,29.99,East,100,0.0,0.0,65,0.00,,---,0.00,VWS V13.01,2013-04-14 13:51:00,
2013-04-14 08:57:00,32.9,21.7,29.96,South,170,0.0,3.6,63,0.00,,---,0.00,VWS V13.01,2013-04-14 13:57:00,
2013-04-14 09:02:00,33.3,21.3,29.96,ESE,117,3.6,4.5,61,0.00,,---,0.00,VWS V13.01,2013-04-14 14:02:00,
2013-04-14 09:07:00,33.4,20.3,29.96,SE,126,4.5,5.1,58,0.00,,---,0.00,VWS V13.01,2013-04-14 14:07:00,
2013-04-14 09:12:00,33.8,19.4,29.96,SSE,158,4.0,4.0,55,0.00,,---,0.00,VWS V13.01,2013-04-14 14:12:00,
2013-04-14 09:18:00,34.0,19.1,29.96,SSE,154,5.1,6.0,54,0.00,,---,0.00,VWS V13.01,2013-04-14 14:18:00,
2013-04-14 09:23:00,34.2,18.4,29.96,SE,128,2.7,4.0,52,0.00,,---,0.00,VWS V13.01,2013-04-14 14:23:00,
2013-04-14 09:28:00,34.2,18.4,29.96,SE,130,4.0,4.0,52,0.00,,---,0.00,VWS V13.01,2013-04-14 14:28:00,
2013-04-14 09:33:00,34.5,19.6,29.96,SSE,163,4.5,4.5,54,0.00,,---,0.00,VWS V13.01,2013-04-14 14:33:00,
2013-04-14 09:39:00,35.1,20.1,29.96,ENE,77,3.6,3.6,54,0.00,,---,0.00,VWS V13.01,2013-04-14 14:39:00,
2013-04-14 09:44:00,34.9,21.2,29.96,ENE,72,3.6,4.5,57,0.00,,---,0.00,VWS V13.01,2013-04-14 14:44:00,
2013-04-14 09:50:00,34.9,19.5,29.96,East,89,4.7,4.7,53,0.00,,---,0.00,VWS V13.01,2013-04-14 14:50:00,
2013-04-14 09:56:00,34.7,18.9,29.96,ESE,102,3.6,4.5,52,0.00,,---,0.00,VWS V13.01,2013-04-14 14:56:00,
2013-04-14 10:01:00,34.7,18.9,29.96,East,94,4.7,6.5,52,0.00,,---,0.00,VWS V13.01,2013-04-14 15:01:00,
2013-04-14 10:07:00,34.9,20.4,29.96,NE,47,5.1,6.5,55,0.00,,---,0.00,VWS V13.01,2013-04-14 15:07:00,
2013-04-14 10:12:00,34.9,18.6,29.96,ENE,71,3.6,5.6,51,0.04,,---,0.04,VWS V13.01,2013-04-14 15:12:00,
2013-04-14 10:18:00,35.1,19.2,29.96,SE,139,4.0,6.5,52,0.04,,---,0.04,VWS V13.01,2013-04-14 15:18:00,
2013-04-14 10:24:00,35.2,18.9,29.96,NE,51,5.1,6.0,51,0.04,,---,0.04,VWS V13.01,2013-04-14 15:24:00,
2013-04-14 10:29:00,35.2,18.9,29.93,South,182,4.5,4.7,51,0.04,,---,0.04,VWS V13.01,2013-04-14 15:29:00,
2013-04-14 10:34:00,35.2,18.5,29.93,SE,132,5.6,6.0,50,0.04,,---,0.04,VWS V13.01,2013-04-14 15:34:00,
2013-04-14 10:40:00,35.4,18.6,29.93,East,86,4.5,6.9,50,0.04,,---,0.04,VWS V13.01,2013-04-14 15:40:00,
2013-04-14 10:46:00,35.4,18.6,29.93,NE,52,4.0,5.6,50,0.04,,---,0.04,VWS V13.01,2013-04-14 15:46:00,
2013-04-14 10:52:00,35.8,19.9,29.93,ENE,66,5.6,6.0,52,0.04,,---,0.04,VWS V13.01,2013-04-14 15:52:00,
2013-04-14 10:57:00,35.8,19.0,29.93,ESE,120,4.5,5.1,50,0.04,,---,0.04,VWS V13.01,2013-04-14 15:57:00,
2013-04-14 11:03:00,36.0,19.1,29.93,ESE,116,4.7,4.7,50,0.04,,---,0.04,VWS V13.01,2013-04-14 16:03:00,
2013-04-14 11:08:00,36.1,18.8,29.93,ESE,109,3.1,4.7,49,0.04,,---,0.04,VWS V13.01,2013-04-14 16:08:00,
2013-04-14 11:14:00,36.3,19.9,29.93,ENE,62,3.6,6.5,51,0.00,,---,0.04,VWS V13.01,2013-04-14 16:14:00,
2013-04-14 11:19:00,36.5,20.1,29.93,NNE,20,0.0,7.8,51,0.00,,---,0.04,VWS V13.01,2013-04-14 16:19:00,
2013-04-14 11:24:00,36.7,20.7,29.93,NE,52,4.5,6.5,52,0.00,,---,0.04,VWS V13.01,2013-04-14 16:24:00,
2013-04-14 11:30:00,36.3,19.5,29.93,East,83,5.6,6.9,50,0.04,,---,0.08,VWS V13.01,2013-04-14 16:30:00,
2013-04-14 11:35:00,36.3,19.9,29.93,ESE,110,4.7,6.9,51,0.04,,---,0.08,VWS V13.01,2013-04-14 16:35:00,
2013-04-14 11:41:00,36.7,19.3,29.93,East,85,4.7,6.0,49,0.04,,---,0.08,VWS V13.01,2013-04-14 16:41:00,
2013-04-14 11:47:00,36.9,20.0,29.90,NE,44,4.5,4.7,50,0.04,,---,0.08,VWS V13.01,2013-04-14 16:47:00,
2013-04-14 11:53:00,37.0,20.1,29.90,NE,49,5.1,7.4,50,0.04,,---,0.08,VWS V13.01,2013-04-14 16:53:00,
2013-04-14 11:59:00,37.0,19.7,29.90,ENE,76,4.7,6.9,49,0.04,,---,0.08,VWS V13.01,2013-04-14 16:59:00,
2013-04-14 12:04:00,36.9,20.0,29.90,NNE,30,5.1,7.8,50,0.04,,---,0.08,VWS V13.01,2013-04-14 17:04:00,
2013-04-14 12:09:00,36.9,20.0,29.90,NNE,31,6.9,6.9,50,0.04,,---,0.08,VWS V13.01,2013-04-14 17:09:00,
2013-04-14 12:14:00,36.9,20.0,29.90,East,82,5.6,7.8,50,0.08,,---,0.12,VWS V13.01,2013-04-14 17:14:00,
2013-04-14 12:20:00,36.9,20.0,29.90,NE,47,7.4,7.4,50,0.08,,---,0.12,VWS V13.01,2013-04-14 17:20:00,
2013-04-14 12:27:00,37.0,19.7,29.90,NNE,29,6.5,6.5,49,0.08,,---,0.12,VWS V13.01,2013-04-14 17:27:00,
2013-04-14 12:32:00,37.2,19.4,29.90,NE,54,6.5,8.3,48,0.04,,---,0.12,VWS V13.01,2013-04-14 17:32:00,
2013-04-14 12:38:00,37.4,18.0,29.90,NE,49,6.9,9.4,45,0.04,,---,0.12,VWS V13.01,2013-04-14 17:38:00,
2013-04-14 12:43:00,37.0,18.2,29.87,NE,45,5.1,6.5,46,0.04,,---,0.12,VWS V13.01,2013-04-14 17:43:00,
2013-04-14 12:48:00,37.2,18.4,29.87,ENE,74,5.6,9.4,46,0.04,,---,0.12,VWS V13.01,2013-04-14 17:48:00,
2013-04-14 12:53:00,37.2,18.4,29.87,East,96,6.5,6.5,46,0.04,,---,0.12,VWS V13.01,2013-04-14 17:53:00,
2013-04-14 12:59:00,36.7,17.4,29.90,ENE,63,6.9,7.4,45,0.04,,---,0.12,VWS V13.01,2013-04-14 17:59:00,
2013-04-14 13:04:00,36.1,16.4,29.90,ENE,75,6.0,7.4,44,0.04,,---,0.12,VWS V13.01,2013-04-14 18:04:00,
2013-04-14 13:10:00,35.6,15.9,29.90,NE,52,6.0,6.5,44,0.04,,---,0.12,VWS V13.01,2013-04-14 18:10:00,
2013-04-14 13:15:00,35.2,16.0,29.90,East,87,6.9,8.7,45,0.00,,---,0.12,VWS V13.01,2013-04-14 18:15:00,
2013-04-14 13:21:00,35.1,16.4,29.90,NE,50,7.8,7.8,46,0.00,,---,0.12,VWS V13.01,2013-04-14 18:21:00,
2013-04-14 13:26:00,34.9,16.2,29.90,East,90,5.1,7.8,46,0.00,,---,0.12,VWS V13.01,2013-04-14 18:26:00,
2013-04-14 13:31:00,34.5,15.9,29.90,SSW,210,7.4,7.4,46,0.00,,---,0.12,VWS V13.01,2013-04-14 18:31:00,
2013-04-14 13:36:00,34.5,15.9,29.90,ENE,63,4.7,6.0,46,0.00,,---,0.12,VWS V13.01,2013-04-14 18:36:00,
2013-04-14 13:41:00,34.3,16.7,29.90,East,80,4.7,6.0,48,0.00,,---,0.12,VWS V13.01,2013-04-14 18:41:00,
2013-04-14 13:47:00,34.3,15.7,29.90,NE,43,5.1,7.8,46,0.00,,---,0.12,VWS V13.01,2013-04-14 18:47:00,
2013-04-14 13:52:00,34.2,15.6,29.90,ENE,77,6.5,7.8,46,0.00,,---,0.12,VWS V13.01,2013-04-14 18:52:00,
2013-04-14 13:58:00,34.5,15.9,29.90,ENE,60,5.1,8.3,46,0.00,,---,0.12,VWS V13.01,2013-04-14 18:58:00,
2013-04-14 14:04:00,34.9,16.2,29.90,NE,56,6.5,7.8,46,0.04,,---,0.16,VWS V13.01,2013-04-14 19:04:00,
2013-04-14 14:09:00,35.4,16.2,29.90,NE,47,10.3,10.7,45,0.04,,---,0.16,VWS V13.01,2013-04-14 19:09:00,
2013-04-14 14:15:00,35.8,15.5,29.90,NE,52,7.8,7.8,43,0.04,,---,0.16,VWS V13.01,2013-04-14 19:15:00,
2013-04-14 14:20:00,35.8,15.5,29.90,ENE,61,5.1,10.3,43,0.04,,---,0.16,VWS V13.01,2013-04-14 19:20:00,
2013-04-14 14:26:00,35.6,14.8,29.90,NE,50,5.1,6.5,42,0.04,,---,0.16,VWS V13.01,2013-04-14 19:26:00,
2013-04-14 14:32:00,35.6,14.8,29.87,East,99,4.7,8.3,42,0.04,,---,0.16,VWS V13.01,2013-04-14 19:32:00,
2013-04-14 14:37:00,35.8,15.5,29.87,East,91,4.0,6.0,43,0.04,,---,0.16,VWS V13.01,2013-04-14 19:37:00,
2013-04-14 14:42:00,36.0,15.6,29.87,North,9,8.9,8.9,43,0.04,,---,0.16,VWS V13.01,2013-04-14 19:42:00,
2013-04-14 14:48:00,36.1,15.8,29.87,ENE,66,4.7,6.0,43,0.04,,---,0.16,VWS V13.01,2013-04-14 19:48:00,
2013-04-14 14:53:00,36.1,15.8,29.87,East,98,8.7,8.7,43,0.04,,---,0.16,VWS V13.01,2013-04-14 19:53:00,
2013-04-14 14:59:00,36.3,16.0,29.84,ENE,72,6.5,6.5,43,0.04,,---,0.16,VWS V13.01,2013-04-14 19:59:00,
2013-04-14 15:04:00,36.1,16.4,29.84,ENE,78,6.0,8.7,44,0.00,,---,0.16,VWS V13.01,2013-04-14 20:04:00,
2013-04-14 15:09:00,36.0,16.2,29.84,ESE,110,8.7,8.7,44,0.00,,---,0.16,VWS V13.01,2013-04-14 20:09:00,
2013-04-14 15:14:00,35.8,16.0,29.84,East,87,5.1,6.9,44,0.00,,---,0.16,VWS V13.01,2013-04-14 20:14:00,
2013-04-14 15:20:00,35.8,16.0,29.84,ENE,74,7.4,9.4,44,0.00,,---,0.16,VWS V13.01,2013-04-14 20:20:00,
2013-04-14 15:25:00,35.8,16.0,29.84,NE,50,6.9,9.8,44,0.00,,---,0.16,VWS V13.01,2013-04-14 20:25:00,
2013-04-14 15:30:00,35.6,15.9,29.84,East,90,6.5,7.4,44,0.00,,---,0.16,VWS V13.01,2013-04-14 20:30:00,
2013-04-14 15:35:00,35.2,16.0,29.84,East,85,6.5,7.8,45,0.00,,---,0.16,VWS V13.01,2013-04-14 20:35:00,
2013-04-14 15:40:00,35.2,16.5,29.84,ENE,67,4.0,9.4,46,0.00,,---,0.16,VWS V13.01,2013-04-14 20:40:00,
2013-04-14 15:46:00,35.1,16.4,29.84,East,94,6.5,8.3,46,0.00,,---,0.16,VWS V13.01,2013-04-14 20:46:00,
2013-04-14 15:51:00,34.9,16.7,29.84,East,89,7.8,8.9,47,0.00,,---,0.16,VWS V13.01,2013-04-14 20:51:00,
2013-04-14 15:56:00,34.5,16.4,29.81,East,97,5.6,8.9,47,0.00,,---,0.16,VWS V13.01,2013-04-14 20:56:00,
2013-04-14 16:01:00,34.3,16.7,29.81,ENE,65,4.0,9.4,48,0.00,,---,0.16,VWS V13.01,2013-04-14 21:01:00,
2013-04-14 16:06:00,34.2,17.5,29.81,NE,54,5.1,11.2,50,0.00,,---,0.16,VWS V13.01,2013-04-14 21:06:00,
2013-04-14 16:12:00,34.0,17.3,29.81,ENE,77,6.0,7.8,50,0.00,,---,0.16,VWS V13.01,2013-04-14 21:12:00,
2013-04-14 16:18:00,33.8,17.6,29.81,NNE,21,9.8,13.0,51,0.00,,---,0.16,VWS V13.01,2013-04-14 21:18:00,
2013-04-14 16:24:00,33.6,18.3,29.81,East,84,8.9,8.9,53,0.00,,---,0.16,VWS V13.01,2013-04-14 21:24:00,
2013-04-14 16:29:00,33.4,18.6,29.81,NE,46,7.8,10.3,54,0.00,,---,0.16,VWS V13.01,2013-04-14 21:29:00,
2013-04-14 16:34:00,33.3,18.9,29.81,NE,45,6.5,6.5,55,0.00,,---,0.16,VWS V13.01,2013-04-14 21:34:00,
2013-04-14 16:39:00,33.1,19.1,29.81,NE,47,6.5,8.7,56,0.00,,---,0.16,VWS V13.01,2013-04-14 21:39:00,
2013-04-14 16:44:00,32.9,19.8,29.81,East,96,11.2,11.2,58,0.00,,---,0.16,VWS V13.01,2013-04-14 21:44:00,
2013-04-14 16:49:00,32.7,20.4,29.81,East,89,6.9,10.3,60,0.00,,---,0.16,VWS V13.01,2013-04-14 21:49:00,
2013-04-14 16:54:00,32.5,21.0,29.81,East,96,7.4,8.7,62,0.00,,---,0.16,VWS V13.01,2013-04-14 21:54:00,
2013-04-14 16:59:00,32.4,21.2,29.81,ESE,107,6.0,6.9,63,0.00,,---,0.16,VWS V13.01,2013-04-14 21:59:00,
2013-04-14 17:04:00,32.2,21.8,29.81,ENE,76,4.0,7.4,65,0.00,,---,0.16,VWS V13.01,2013-04-14 22:04:00,
2013-04-14 17:10:00,32.0,22.3,29.81,East,82,4.0,6.9,67,0.00,,---,0.16,VWS V13.01,2013-04-14 22:10:00,
2013-04-14 17:16:00,31.6,23.3,29.81,East,87,6.0,7.4,71,0.00,,---,0.16,VWS V13.01,2013-04-14 22:16:00,
2013-04-14 17:21:00,31.3,23.6,29.81,ENE,70,6.0,9.8,73,0.00,,---,0.16,VWS V13.01,2013-04-14 22:21:00,
2013-04-14 17:27:00,31.1,24.1,29.81,ENE,73,6.9,6.9,75,0.00,,---,0.16,VWS V13.01,2013-04-14 22:27:00,
2013-04-14 17:32:00,31.1,24.4,29.81,NE,51,4.5,5.1,76,0.00,,---,0.16,VWS V13.01,2013-04-14 22:32:00,
2013-04-14 17:37:00,30.9,24.6,29.81,East,93,6.5,8.7,77,0.00,,---,0.16,VWS V13.01,2013-04-14 22:37:00,
2013-04-14 17:43:00,30.9,24.9,29.81,ENE,74,5.6,7.4,78,0.00,,---,0.16,VWS V13.01,2013-04-14 22:43:00,
2013-04-14 17:48:00,30.9,25.5,29.81,East,84,4.0,6.0,80,0.00,,---,0.16,VWS V13.01,2013-04-14 22:48:00,
2013-04-14 17:53:00,30.9,25.5,29.81,ENE,71,6.0,8.3,80,0.00,,---,0.16,VWS V13.01,2013-04-14 22:53:00,
2013-04-14 17:58:00,30.9,25.8,29.78,ENE,61,4.7,7.4,81,0.00,,---,0.16,VWS V13.01,2013-04-14 22:58:00,
2013-04-14 18:03:00,30.9,26.1,29.78,ENE,69,4.5,5.6,82,0.00,,---,0.16,VWS V13.01,2013-04-14 23:03:00,
2013-04-14 18:08:00,31.1,26.5,29.78,East,82,4.5,5.1,83,0.00,,---,0.16,VWS V13.01,2013-04-14 23:08:00,
2013-04-14 18:14:00,31.1,26.8,29.78,ENE,68,7.4,7.4,84,0.00,,---,0.16,VWS V13.01,2013-04-14 23:14:00,
2013-04-14 18:19:00,31.1,27.1,29.78,ENE,69,4.0,5.6,85,0.00,,---,0.16,VWS V13.01,2013-04-14 23:19:00,
2013-04-14 18:25:00,31.1,27.1,29.78,NE,44,6.9,6.9,85,0.00,,---,0.16,VWS V13.01,2013-04-14 23:25:00,
2013-04-14 18:30:00,31.3,27.3,29.78,South,171,4.7,5.1,85,0.00,,---,0.16,VWS V13.01,2013-04-14 23:30:00,
2013-04-14 18:35:00,31.3,27.6,29.78,ENE,71,5.1,6.0,86,0.00,,---,0.16,VWS V13.01,2013-04-14 23:35:00,
2013-04-14 18:40:00,31.3,27.6,29.78,East,81,4.0,5.1,86,0.00,,---,0.16,VWS V13.01,2013-04-14 23:40:00,
2013-04-14 18:46:00,31.5,27.8,29.78,ENE,75,4.7,6.0,86,0.00,,---,0.16,VWS V13.01,2013-04-14 23:46:00,
2013-04-14 18:51:00,31.5,28.0,29.78,ENE,60,4.7,5.6,87,0.00,,---,0.16,VWS V13.01,2013-04-14 23:51:00,
2013-04-14 18:57:00,31.6,28.2,29.78,East,101,7.4,7.8,87,0.00,,---,0.16,VWS V13.01,2013-04-14 23:57:00,
2013-04-14 19:02:00,31.6,28.2,29.78,ENE,63,4.0,4.5,87,0.00,,---,0.16,VWS V13.01,2013-04-15 00:02:00,
2013-04-14 19:08:00,31.8,28.7,29.78,ENE,75,6.9,6.9,88,0.00,,---,0.16,VWS V13.01,2013-04-15 00:08:00,
2013-04-14 19:13:00,31.8,28.7,29.75,ENE,77,5.1,7.4,88,0.00,,---,0.16,VWS V13.01,2013-04-15 00:13:00,
2013-04-14 19:19:00,31.8,28.7,29.75,East,79,3.6,6.0,88,0.00,,---,0.16,VWS V13.01,2013-04-15 00:19:00,
2013-04-14 19:26:00,31.8,29.0,29.75,NNE,30,6.5,6.5,89,0.00,,---,0.16,VWS V13.01,2013-04-15 00:26:00,
2013-04-14 19:32:00,31.8,29.0,29.75,ENE,78,4.7,4.7,89,0.00,,---,0.16,VWS V13.01,2013-04-15 00:32:00,
2013-04-14 19:37:00,31.8,29.0,29.75,East,90,4.5,7.8,89,0.00,,---,0.16,VWS V13.01,2013-04-15 00:37:00,
2013-04-14 19:43:00,31.8,29.0,29.75,East,83,4.7,5.6,89,0.00,,---,0.16,VWS V13.01,2013-04-15 00:43:00,
2013-04-14 19:48:00,31.8,29.0,29.75,ENE,60,5.1,5.6,89,0.00,,---,0.16,VWS V13.01,2013-04-15 00:48:00,
2013-04-14 19:53:00,31.8,29.2,29.75,ENE,60,5.1,6.5,90,0.00,,---,0.16,VWS V13.01,2013-04-15 00:53:00,
2013-04-14 19:58:00,31.8,29.2,29.72,ESE,121,4.5,5.6,90,0.00,,---,0.16,VWS V13.01,2013-04-15 00:58:00,
2013-04-14 20:03:00,31.6,29.0,29.72,ENE,68,4.5,7.8,90,0.00,,---,0.16,VWS V13.01,2013-04-15 01:03:00,
2013-04-14 20:09:00,31.6,29.0,29.72,ENE,67,4.5,6.0,90,0.00,,---,0.16,VWS V13.01,2013-04-15 01:09:00,
2013-04-14 20:14:00,31.6,29.3,29.72,ENE,74,6.9,7.8,91,0.00,,---,0.16,VWS V13.01,2013-04-15 01:14:00,
2013-04-14 20:19:00,31.6,29.3,29.72,NE,44,4.7,8.7,91,0.00,,---,0.16,VWS V13.01,2013-04-15 01:19:00,
2013-04-14 20:25:00,31.5,29.1,29.72,ENE,61,7.8,7.8,91,0.00,,---,0.16,VWS V13.01,2013-04-15 01:25:00,
2013-04-14 20:31:00,31.5,29.1,29.70,ESE,107,5.6,5.6,91,0.00,,---,0.16,VWS V13.01,2013-04-15 01:31:00,
2013-04-14 20:36:00,31.5,29.4,29.70,NE,42,9.4,10.7,92,0.00,,---,0.16,VWS V13.01,2013-04-15 01:36:00,
2013-04-14 20:41:00,31.5,29.4,29.70,NE,38,7.8,9.4,92,0.00,,---,0.16,VWS V13.01,2013-04-15 01:41:00,
2013-04-14 20:46:00,31.5,29.4,29.70,East,82,5.1,6.9,92,0.00,,---,0.16,VWS V13.01,2013-04-15 01:46:00,
2013-04-14 20:52:00,31.6,29.6,29.70,NNE,27,5.1,8.3,92,0.00,,---,0.16,VWS V13.01,2013-04-15 01:52:00,
2013-04-14 20:58:00,31.6,29.9,29.70,NE,54,5.1,5.6,93,0.00,,---,0.16,VWS V13.01,2013-04-15 01:58:00,
2013-04-14 21:03:00,31.6,29.9,29.70,ENE,62,0.0,10.3,93,0.00,,---,0.16,VWS V13.01,2013-04-15 02:03:00,
2013-04-14 21:09:00,31.6,29.9,29.70,ENE,72,3.1,3.6,93,0.00,,---,0.16,VWS V13.01,2013-04-15 02:09:00,
2013-04-14 21:14:00,31.8,30.0,29.72,NE,56,0.0,0.0,93,0.00,,---,0.16,VWS V13.01,2013-04-15 02:14:00,
2013-04-14 21:19:00,31.6,29.9,29.72,NE,47,0.0,0.0,93,0.00,,---,0.16,VWS V13.01,2013-04-15 02:19:00,
2013-04-14 21:24:00,31.5,29.7,29.72,NE,47,0.0,0.0,93,0.00,,---,0.16,VWS V13.01,2013-04-15 02:24:00,
2013-04-14 21:30:00,31.5,29.7,29.72,NE,47,0.0,0.0,93,0.00,,---,0.16,VWS V13.01,2013-04-15 02:30:00,
2013-04-14 21:35:00,31.3,29.8,29.72,NE,47,0.0,0.0,94,0.00,,---,0.16,VWS V13.01,2013-04-15 02:35:00,
2013-04-14 21:40:00,31.3,29.8,29.72,NE,47,0.0,0.0,94,0.00,,---,0.16,VWS V13.01,2013-04-15 02:40:00,
2013-04-14 21:46:00,31.3,29.8,29.70,NE,47,0.0,0.0,94,0.00,,---,0.16,VWS V13.01,2013-04-15 02:46:00,
2013-04-14 21:51:00,31.1,29.6,29.70,NE,47,0.0,0.0,94,0.00,,---,0.16,VWS V13.01,2013-04-15 02:51:00,
2013-04-14 21:57:00,31.1,29.6,29.72,NE,47,0.0,0.0,94,0.00,,---,0.16,VWS V13.01,2013-04-15 02:57:00,
2013-04-14 22:02:00,31.1,29.6,29.72,NE,47,0.0,0.0,94,0.00,,---,0.16,VWS V13.01,2013-04-15 03:02:00,
2013-04-14 22:08:00,31.1,29.6,29.72,NE,47,0.0,0.0,94,0.00,,---,0.16,VWS V13.01,2013-04-15 03:08:00,
2013-04-14 22:14:00,31.1,29.6,29.70,NE,47,0.0,0.0,94,0.00,,---,0.16,VWS V13.01,2013-04-15 03:14:00,
2013-04-14 22:19:00,31.3,29.8,29.70,NE,47,0.0,0.0,94,0.00,,---,0.16,VWS V13.01,2013-04-15 03:19:00,
2013-04-14 22:24:00,31.3,29.8,29.70,NE,47,0.0,0.0,94,0.00,,---,0.16,VWS V13.01,2013-04-15 03:24:00,
2013-04-14 22:30:00,31.3,29.8,29.70,NE,47,0.0,0.0,94,0.00,,---,0.16,VWS V13.01,2013-04-15 03:30:00,
2013-04-14 22:35:00,31.3,29.8,29.70,NE,47,0.0,0.0,94,0.00,,---,0.16,VWS V13.01,2013-04-15 03:35:00,
2013-04-14 22:40:00,31.3,30.0,29.70,NE,47,0.0,0.0,95,0.00,,---,0.16,VWS V13.01,2013-04-15 03:40:00,
2013-04-14 22:46:00,31.3,30.0,29.70,NE,47,0.0,0.0,95,0.00,,---,0.16,VWS V13.01,2013-04-15 03:46:00,
2013-04-14 22:51:00,31.3,30.0,29.70,NE,47,0.0,0.0,95,0.00,,---,0.16,VWS V13.01,2013-04-15 03:51:00,
2013-04-14 22:57:00,31.3,30.0,29.70,NE,47,0.0,0.0,95,0.00,,---,0.16,VWS V13.01,2013-04-15 03:57:00,
2013-04-14 23:00:00,31.5,30.2,29.70,NE,47,0.0,0.0,95,0.00,,---,0.16,VWS V13.01,2013-04-15 04:00:00,
2013-04-14 23:01:00,31.5,30.2,29.70,NE,47,0.0,0.0,95,0.00,,---,0.16,VWS V13.01,2013-04-15 04:01:00,
2013-04-14 23:02:00,31.5,30.2,29.70,NE,47,0.0,0.0,95,0.00,,---,0.16,VWS V13.01,2013-04-15 04:02:00,
2013-04-14 23:03:00,31.5,30.2,29.70,NE,47,0.0,0.0,95,0.00,,---,0.16,VWS V13.01,2013-04-15 04:03:00,
2013-04-14 23:09:00,31.5,30.2,29.70,NE,47,0.0,0.0,95,0.00,,---,0.16,VWS V13.01,2013-04-15 04:09:00,
2013-04-14 23:14:00,31.5,30.2,29.67,NE,47,0.0,0.0,95,0.00,,---,0.16,VWS V13.01,2013-04-15 04:14:00,
2013-04-14 23:19:00,31.5,30.2,29.67,NE,47,0.0,0.0,95,0.00,,---,0.16,VWS V13.01,2013-04-15 04:19:00,
2013-04-14 23:25:00,31.5,30.2,29.67,NE,47,0.0,0.0,95,0.00,,---,0.16,VWS V13.01,2013-04-15 04:25:00,
2013-04-14 23:31:00,31.3,30.0,29.67,NE,47,0.0,0.0,95,0.00,,---,0.16,VWS V13.01,2013-04-15 04:31:00,
2013-04-14 23:36:00,31.3,30.0,29.67,NE,47,0.0,0.0,95,0.00,,---,0.16,VWS V13.01,2013-04-15 04:36:00,
2013-04-14 23:41:00,31.3,30.0,29.67,NE,47,0.0,0.0,95,0.00,,---,0.16,VWS V13.01,2013-04-15 04:41:00,
2013-04-14 23:47:00,31.5,30.2,29.67,NE,47,0.0,0.0,95,0.00,,---,0.16,VWS V13.01,2013-04-15 04:47:00,
2013-04-14 23:53:00,31.5,30.2,29.67,NE,47,0.0,0.0,95,0.00,,---,0.16,VWS V13.01,2013-04-15 04:53:00,
2013-04-14 23:58:00,31.5,30.2,29.67,NE,47,0.0,0.0,95,0.00,,---,0.16,VWS V13.01,2013-04-15 04:58:00,